sensor_id;sensor_type;location;lat;lon;timestamp;pressure;altitude;pressure_sealevel;temperature;humidity
74659;BME280;63186;51.204;6.536;2024-02-16T00:01:37;100632.63;;;11.23;100.00
74659;BME280;63186;51.204;6.536;2024-02-16T00:04:02;100637.63;;;11.21;100.00
74659;BME280;63186;51.204;6.536;2024-02-16T00:06:28;100646.91;;;11.25;100.00
74659;BME280;63186;51.204;6.536;2024-02-16T00:08:53;100648.19;;;11.28;100.00
74659;BME280;63186;51.204;6.536;2024-02-16T00:11:18;100655.34;;;11.29;100.00
74659;BME280;63186;51.204;6.536;2024-02-16T00:13:44;100650.94;;;11.28;100.00
74659;BME280;63186;51.204;6.536;2024-02-16T00:16:09;100649.31;;;11.27;100.00
74659;BME280;63186;51.204;6.536;2024-02-16T00:18:34;100640.56;;;11.25;100.00
74659;BME280;63186;51.204;6.536;2024-02-16T00:21:00;100655.66;;;11.27;100.00
74659;BME280;63186;51.204;6.536;2024-02-16T00:23:26;100641.56;;;11.29;100.00
74659;BME280;63186;51.204;6.536;2024-02-16T00:25:52;100648.19;;;11.28;100.00
74659;BME280;63186;51.204;6.536;2024-02-16T00:28:18;100647.72;;;11.26;100.00
74659;BME280;63186;51.204;6.536;2024-02-16T00:30:43;100642.69;;;11.28;100.00
74659;BME280;63186;51.204;6.536;2024-02-16T00:33:09;100641.41;;;11.34;100.00
74659;BME280;63186;51.204;6.536;2024-02-16T00:35:34;100638.50;;;11.30;100.00
74659;BME280;63186;51.204;6.536;2024-02-16T00:38:00;100641.56;;;11.29;100.00
74659;BME280;63186;51.204;6.536;2024-02-16T00:40:25;100643.53;;;11.28;100.00
74659;BME280;63186;51.204;6.536;2024-02-16T00:42:51;100642.19;;;11.26;100.00
74659;BME280;63186;51.204;6.536;2024-02-16T00:45:17;100644.47;;;11.24;100.00
74659;BME280;63186;51.204;6.536;2024-02-16T00:47:42;100644.28;;;11.20;100.00
74659;BME280;63186;51.204;6.536;2024-02-16T00:50:10;100637.16;;;11.19;100.00
74659;BME280;63186;51.204;6.536;2024-02-16T00:52:36;100635.72;;;11.22;100.00
74659;BME280;63186;51.204;6.536;2024-02-16T00:55:02;100626.44;;;11.18;100.00
74659;BME280;63186;51.204;6.536;2024-02-16T00:57:29;100627.06;;;11.14;100.00
74659;BME280;63186;51.204;6.536;2024-02-16T00:59:54;100635.84;;;11.17;100.00
74659;BME280;63186;51.204;6.536;2024-02-16T01:02:19;100632.28;;;11.16;100.00
74659;BME280;63186;51.204;6.536;2024-02-16T01:04:45;100625.63;;;11.17;100.00
74659;BME280;63186;51.204;6.536;2024-02-16T01:07:12;100630.50;;;11.20;100.00
74659;BME280;63186;51.204;6.536;2024-02-16T01:09:37;100632.63;;;11.23;100.00
74659;BME280;63186;51.204;6.536;2024-02-16T01:12:02;100627.94;;;11.24;100.00
74659;BME280;63186;51.204;6.536;2024-02-16T01:14:28;100623.22;;;11.24;100.00
74659;BME280;63186;51.204;6.536;2024-02-16T01:16:53;100632.78;;;11.27;100.00
74659;BME280;63186;51.204;6.536;2024-02-16T01:19:18;100634.94;;;11.30;100.00
74659;BME280;63186;51.204;6.536;2024-02-16T01:21:44;100622.78;;;11.31;100.00
74659;BME280;63186;51.204;6.536;2024-02-16T01:24:12;100628.13;;;11.36;100.00
74659;BME280;63186;51.204;6.536;2024-02-16T01:26:38;100632.53;;;11.37;100.00
74659;BME280;63186;51.204;6.536;2024-02-16T01:29:03;100628.13;;;11.36;100.00
74659;BME280;63186;51.204;6.536;2024-02-16T01:31:29;100624.56;;;11.35;100.00
74659;BME280;63186;51.204;6.536;2024-02-16T01:33:54;100629.75;;;11.37;100.00
74659;BME280;63186;51.204;6.536;2024-02-16T01:36:20;100627.00;;;11.37;100.00
74659;BME280;63186;51.204;6.536;2024-02-16T01:38:45;100628.00;;;11.41;100.00
74659;BME280;63186;51.204;6.536;2024-02-16T01:41:10;100631.56;;;11.41;100.00
74659;BME280;63186;51.204;6.536;2024-02-16T01:43:36;100634.81;;;11.44;100.00
74659;BME280;63186;51.204;6.536;2024-02-16T01:46:01;100626.69;;;11.47;100.00
74659;BME280;63186;51.204;6.536;2024-02-16T01:48:27;100622.03;;;11.48;100.00
74659;BME280;63186;51.204;6.536;2024-02-16T01:50:53;100620.69;;;11.45;100.00
74659;BME280;63186;51.204;6.536;2024-02-16T01:53:18;100623.47;;;11.45;100.00
74659;BME280;63186;51.204;6.536;2024-02-16T01:55:46;100624.09;;;11.42;100.00
74659;BME280;63186;51.204;6.536;2024-02-16T01:58:11;100634.81;;;11.44;100.00
74659;BME280;63186;51.204;6.536;2024-02-16T02:00:40;100626.34;;;11.40;100.00
74659;BME280;63186;51.204;6.536;2024-02-16T02:03:06;100633.31;;;11.37;100.00
74659;BME280;63186;51.204;6.536;2024-02-16T02:05:31;100625.34;;;11.27;100.00
74659;BME280;63186;51.204;6.536;2024-02-16T02:07:57;100621.75;;;11.18;100.00
74659;BME280;63186;51.204;6.536;2024-02-16T02:10:22;100622.41;;;11.15;100.00
74659;BME280;63186;51.204;6.536;2024-02-16T02:12:47;100629.00;;;11.14;100.00
74659;BME280;63186;51.204;6.536;2024-02-16T02:15:13;100610.69;;;11.09;100.00
74659;BME280;63186;51.204;6.536;2024-02-16T02:17:38;100611.00;;;11.08;100.00
74659;BME280;63186;51.204;6.536;2024-02-16T02:20:04;100607.94;;;11.09;100.00
74659;BME280;63186;51.204;6.536;2024-02-16T02:22:33;100605.81;;;11.06;100.00
74659;BME280;63186;51.204;6.536;2024-02-16T02:24:58;100607.59;;;11.02;100.00
74659;BME280;63186;51.204;6.536;2024-02-16T02:27:23;100604.66;;;10.99;100.00
74659;BME280;63186;51.204;6.536;2024-02-16T02:29:49;100600.59;;;10.96;100.00
74659;BME280;63186;51.204;6.536;2024-02-16T02:32:15;100603.84;;;10.98;100.00
74659;BME280;63186;51.204;6.536;2024-02-16T02:34:40;100596.72;;;10.97;100.00
74659;BME280;63186;51.204;6.536;2024-02-16T02:37:06;100589.25;;;10.98;100.00
74659;BME280;63186;51.204;6.536;2024-02-16T02:39:32;100586.19;;;10.99;100.00
74659;BME280;63186;51.204;6.536;2024-02-16T02:41:57;100582.44;;;10.95;100.00
74659;BME280;63186;51.204;6.536;2024-02-16T02:44:25;100586.03;;;10.96;100.00
74659;BME280;63186;51.204;6.536;2024-02-16T02:46:51;100583.75;;;10.98;100.00
74659;BME280;63186;51.204;6.536;2024-02-16T02:49:17;100585.22;;;11.04;100.00
74659;BME280;63186;51.204;6.536;2024-02-16T02:51:42;100587.19;;;11.03;100.00
74659;BME280;63186;51.204;6.536;2024-02-16T02:54:08;100579.22;;;11.02;100.00
74659;BME280;63186;51.204;6.536;2024-02-16T02:56:33;100583.09;;;11.01;100.00
74659;BME280;63186;51.204;6.536;2024-02-16T02:58:58;100583.75;;;10.98;100.00
74659;BME280;63186;51.204;6.536;2024-02-16T03:01:24;100581.31;;;10.96;100.00
74659;BME280;63186;51.204;6.536;2024-02-16T03:03:49;100584.38;;;10.95;100.00
74659;BME280;63186;51.204;6.536;2024-02-16T03:06:18;100577.75;;;10.96;100.00
74659;BME280;63186;51.204;6.536;2024-02-16T03:08:44;100572.06;;;10.92;100.00
74659;BME280;63186;51.204;6.536;2024-02-16T03:11:09;100581.94;;;10.93;100.00
74659;BME280;63186;51.204;6.536;2024-02-16T03:13:36;100575.16;;;10.99;100.00
74659;BME280;63186;51.204;6.536;2024-02-16T03:16:01;100576.97;;;11.04;100.00
74659;BME280;63186;51.204;6.536;2024-02-16T03:18:32;100573.56;;;11.07;100.00
74659;BME280;63186;51.204;6.536;2024-02-16T03:20:58;100561.41;;;11.08;100.00
74659;BME280;63186;51.204;6.536;2024-02-16T03:23:24;100565.50;;;11.10;100.00
74659;BME280;63186;51.204;6.536;2024-02-16T03:25:49;100564.84;;;11.13;100.00
74659;BME280;63186;51.204;6.536;2024-02-16T03:28:15;100563.88;;;11.18;100.00
74659;BME280;63186;51.204;6.536;2024-02-16T03:30:41;100573.78;;;11.19;100.00
74659;BME280;63186;51.204;6.536;2024-02-16T03:33:06;100569.41;;;11.18;100.00
74659;BME280;63186;51.204;6.536;2024-02-16T03:35:32;100563.06;;;11.18;100.00
74659;BME280;63186;51.204;6.536;2024-02-16T03:37:57;100564.53;;;11.15;100.00
74659;BME280;63186;51.204;6.536;2024-02-16T03:40:23;100558.50;;;11.13;100.00
74659;BME280;63186;51.204;6.536;2024-02-16T03:42:50;100560.47;;;11.12;100.00
74659;BME280;63186;51.204;6.536;2024-02-16T03:45:15;100555.44;;;11.14;100.00
74659;BME280;63186;51.204;6.536;2024-02-16T03:47:41;100559.84;;;11.16;100.00
74659;BME280;63186;51.204;6.536;2024-02-16T03:50:07;100561.94;;;11.19;100.00
74659;BME280;63186;51.204;6.536;2024-02-16T03:52:32;100558.38;;;11.18;100.00
74659;BME280;63186;51.204;6.536;2024-02-16T03:54:58;100573.44;;;11.21;100.00
74659;BME280;63186;51.204;6.536;2024-02-16T03:57:24;100568.91;;;11.16;100.00
74659;BME280;63186;51.204;6.536;2024-02-16T03:59:49;100558.69;;;11.17;100.00
74659;BME280;63186;51.204;6.536;2024-02-16T04:02:14;100561.94;;;11.19;100.00
74659;BME280;63186;51.204;6.536;2024-02-16T04:04:40;100563.22;;;11.21;100.00
74659;BME280;63186;51.204;6.536;2024-02-16T04:07:05;100565.38;;;11.24;100.00
74659;BME280;63186;51.204;6.536;2024-02-16T04:09:33;100571.03;;;11.19;100.00
74659;BME280;63186;51.204;6.536;2024-02-16T04:12:00;100572.81;;;11.15;100.00
74659;BME280;63186;51.204;6.536;2024-02-16T04:14:25;100578.31;;;11.15;100.00
74659;BME280;63186;51.204;6.536;2024-02-16T04:16:50;100568.88;;;11.07;100.00
74659;BME280;63186;51.204;6.536;2024-02-16T04:19:16;100583.78;;;11.06;100.00
74659;BME280;63186;51.204;6.536;2024-02-16T04:21:41;100586.53;;;11.06;100.00
74659;BME280;63186;51.204;6.536;2024-02-16T04:24:07;100574.22;;;11.04;100.00
74659;BME280;63186;51.204;6.536;2024-02-16T04:26:32;100580.19;;;10.97;100.00
74659;BME280;63186;51.204;6.536;2024-02-16T04:28:58;100570.13;;;10.93;100.00
74659;BME280;63186;51.204;6.536;2024-02-16T04:31:23;100580.13;;;10.88;100.00
74659;BME280;63186;51.204;6.536;2024-02-16T04:33:49;100579.97;;;10.85;100.00
74659;BME280;63186;51.204;6.536;2024-02-16T04:36:14;100578.47;;;10.79;100.00
74659;BME280;63186;51.204;6.536;2024-02-16T04:38:40;100587.22;;;10.81;100.00
74659;BME280;63186;51.204;6.536;2024-02-16T04:41:06;100586.53;;;10.75;100.00
74659;BME280;63186;51.204;6.536;2024-02-16T04:43:32;100592.91;;;10.76;100.00
74659;BME280;63186;51.204;6.536;2024-02-16T04:45:57;100596.47;;;10.76;100.00
74659;BME280;63186;51.204;6.536;2024-02-16T04:48:22;100598.41;;;10.76;100.00
74659;BME280;63186;51.204;6.536;2024-02-16T04:50:48;100599.00;;;10.73;100.00
74659;BME280;63186;51.204;6.536;2024-02-16T04:53:13;100589.75;;;10.69;100.00
74659;BME280;63186;51.204;6.536;2024-02-16T04:55:39;100594.16;;;10.70;100.00
74659;BME280;63186;51.204;6.536;2024-02-16T04:58:04;100595.78;;;10.71;100.00
74659;BME280;63186;51.204;6.536;2024-02-16T05:00:35;100595.13;;;10.74;100.00
74659;BME280;63186;51.204;6.536;2024-02-16T05:03:00;100596.59;;;10.71;100.00
74659;BME280;63186;51.204;6.536;2024-02-16T05:05:26;100583.59;;;10.63;100.00
74659;BME280;63186;51.204;6.536;2024-02-16T05:07:51;100583.59;;;10.63;100.00
74659;BME280;63186;51.204;6.536;2024-02-16T05:10:16;100581.28;;;10.56;100.00
74659;BME280;63186;51.204;6.536;2024-02-16T05:12:42;100585.47;;;10.54;100.00
74659;BME280;63186;51.204;6.536;2024-02-16T05:15:08;100573.47;;;10.50;100.00
74659;BME280;63186;51.204;6.536;2024-02-16T05:17:34;100579.09;;;10.45;100.00
74659;BME280;63186;51.204;6.536;2024-02-16T05:19:59;100579.44;;;10.43;100.00
74659;BME280;63186;51.204;6.536;2024-02-16T05:22:25;100570.16;;;10.39;100.00
74659;BME280;63186;51.204;6.536;2024-02-16T05:24:50;100567.72;;;10.38;100.00
74659;BME280;63186;51.204;6.536;2024-02-16T05:27:15;100571.09;;;10.35;100.00
74659;BME280;63186;51.204;6.536;2024-02-16T05:29:41;100563.34;;;10.37;100.00
74659;BME280;63186;51.204;6.536;2024-02-16T05:32:07;100570.50;;;10.38;100.00
74659;BME280;63186;51.204;6.536;2024-02-16T05:34:32;100566.59;;;10.39;100.00
74659;BME280;63186;51.204;6.536;2024-02-16T05:37:06;100566.72;;;10.33;100.00
74659;BME280;63186;51.204;6.536;2024-02-16T05:39:37;100565.47;;;10.40;100.00
74659;BME280;63186;51.204;6.536;2024-02-16T05:42:19;100569.22;;;10.44;100.00
74659;BME280;63186;51.204;6.536;2024-02-16T05:44:44;100563.28;;;10.50;100.00
74659;BME280;63186;51.204;6.536;2024-02-16T05:47:10;100573.66;;;10.53;100.00
74659;BME280;63186;51.204;6.536;2024-02-16T05:49:35;100577.56;;;10.61;100.00
74659;BME280;63186;51.204;6.536;2024-02-16T05:52:01;100571.44;;;10.64;100.00
74659;BME280;63186;51.204;6.536;2024-02-16T05:54:46;100583.31;;;10.73;100.00
74659;BME280;63186;51.204;6.536;2024-02-16T05:57:13;100580.75;;;10.77;100.00
74659;BME280;63186;51.204;6.536;2024-02-16T05:59:38;100579.78;;;10.81;100.00
74659;BME280;63186;51.204;6.536;2024-02-16T06:02:04;100583.66;;;10.80;100.00
74659;BME280;63186;51.204;6.536;2024-02-16T06:04:31;100588.84;;;10.82;100.00
74659;BME280;63186;51.204;6.536;2024-02-16T06:06:56;100579.78;;;10.81;100.00
74659;BME280;63186;51.204;6.536;2024-02-16T06:09:21;100581.56;;;10.77;100.00
74659;BME280;63186;51.204;6.536;2024-02-16T06:11:47;100570.09;;;10.84;100.00
74659;BME280;63186;51.204;6.536;2024-02-16T06:14:13;100577.56;;;10.92;100.00
74659;BME280;63186;51.204;6.536;2024-02-16T06:16:40;100587.31;;;10.98;100.00
74659;BME280;63186;51.204;6.536;2024-02-16T06:19:07;100582.28;;;11.00;100.00
74659;BME280;63186;51.204;6.536;2024-02-16T06:21:34;100573.88;;;10.97;100.00
74659;BME280;63186;51.204;6.536;2024-02-16T06:23:59;100578.69;;;10.91;100.00
74659;BME280;63186;51.204;6.536;2024-02-16T06:26:24;100581.47;;;10.91;100.00
74659;BME280;63186;51.204;6.536;2024-02-16T06:28:49;100593.09;;;10.88;100.00
74659;BME280;63186;51.204;6.536;2024-02-16T06:31:15;100589.00;;;10.77;100.00
74659;BME280;63186;51.204;6.536;2024-02-16T06:33:40;100593.19;;;10.74;100.00
74659;BME280;63186;51.204;6.536;2024-02-16T06:36:06;100589.47;;;10.70;100.00
74659;BME280;63186;51.204;6.536;2024-02-16T06:38:32;100596.91;;;10.70;100.00
74659;BME280;63186;51.204;6.536;2024-02-16T06:40:57;100609.03;;;10.69;100.00
74659;BME280;63186;51.204;6.536;2024-02-16T06:43:22;100616.47;;;10.68;100.00
74659;BME280;63186;51.204;6.536;2024-02-16T06:45:48;100604.16;;;10.66;100.00
74659;BME280;63186;51.204;6.536;2024-02-16T06:48:13;100620.72;;;10.74;100.00
74659;BME280;63186;51.204;6.536;2024-02-16T06:50:38;100625.53;;;10.69;100.00
74659;BME280;63186;51.204;6.536;2024-02-16T06:53:04;100621.69;;;10.70;100.00
74659;BME280;63186;51.204;6.536;2024-02-16T06:55:29;100642.56;;;10.71;100.00
74659;BME280;63186;51.204;6.536;2024-02-16T06:57:54;100637.88;;;10.71;100.00
74659;BME280;63186;51.204;6.536;2024-02-16T07:00:20;100640.13;;;10.69;100.00
74659;BME280;63186;51.204;6.536;2024-02-16T07:02:46;100649.03;;;10.66;100.00
74659;BME280;63186;51.204;6.536;2024-02-16T07:05:12;100652.22;;;10.59;100.00
74659;BME280;63186;51.204;6.536;2024-02-16T07:07:37;100655.78;;;10.60;100.00
74659;BME280;63186;51.204;6.536;2024-02-16T07:10:03;100661.16;;;10.65;100.00
74659;BME280;63186;51.204;6.536;2024-02-16T07:12:30;100666.84;;;10.69;100.00
74659;BME280;63186;51.204;6.536;2024-02-16T07:14:55;100657.66;;;10.73;100.00
74659;BME280;63186;51.204;6.536;2024-02-16T07:17:21;100661.91;;;10.79;100.00
74659;BME280;63186;51.204;6.536;2024-02-16T07:19:46;100669.59;;;10.91;100.00
74659;BME280;63186;51.204;6.536;2024-02-16T07:22:11;100676.59;;;10.97;100.00
74659;BME280;63186;51.204;6.536;2024-02-16T07:24:37;100676.13;;;11.04;100.00
74659;BME280;63186;51.204;6.536;2024-02-16T07:27:03;100688.69;;;11.19;100.00
74659;BME280;63186;51.204;6.536;2024-02-16T07:29:28;100683.06;;;11.32;100.00
74659;BME280;63186;51.204;6.536;2024-02-16T07:31:54;100695.94;;;11.46;100.00
74659;BME280;63186;51.204;6.536;2024-02-16T07:34:21;100687.88;;;11.58;100.00
74659;BME280;63186;51.204;6.536;2024-02-16T07:36:46;100700.06;;;11.65;100.00
74659;BME280;63186;51.204;6.536;2024-02-16T07:39:11;100706.44;;;11.75;100.00
74659;BME280;63186;51.204;6.536;2024-02-16T07:41:37;100704.03;;;11.82;100.00
74659;BME280;63186;51.204;6.536;2024-02-16T07:44:03;100709.25;;;11.92;100.00
74659;BME280;63186;51.204;6.536;2024-02-16T07:46:28;100714.28;;;11.99;100.00
74659;BME280;63186;51.204;6.536;2024-02-16T07:48:53;100714.81;;;12.01;100.00
74659;BME280;63186;51.204;6.536;2024-02-16T07:51:20;100709.78;;;12.03;100.00
74659;BME280;63186;51.204;6.536;2024-02-16T07:53:45;100714.47;;;12.02;100.00
74659;BME280;63186;51.204;6.536;2024-02-16T07:56:11;100726.50;;;12.06;100.00
74659;BME280;63186;51.204;6.536;2024-02-16T07:58:37;100728.75;;;12.04;100.00
74659;BME280;63186;51.204;6.536;2024-02-16T08:01:02;100731.50;;;12.04;100.00
74659;BME280;63186;51.204;6.536;2024-02-16T08:03:27;100722.28;;;12.00;100.00
74659;BME280;63186;51.204;6.536;2024-02-16T08:05:54;100725.19;;;11.95;100.00
74659;BME280;63186;51.204;6.536;2024-02-16T08:08:19;100723.84;;;11.92;100.00
74659;BME280;63186;51.204;6.536;2024-02-16T08:10:45;100733.78;;;11.93;100.00
74659;BME280;63186;51.204;6.536;2024-02-16T08:13:10;100730.38;;;11.97;100.00
74659;BME280;63186;51.204;6.536;2024-02-16T08:15:36;100742.56;;;12.04;100.00
74659;BME280;63186;51.204;6.536;2024-02-16T08:18:01;100732.34;;;12.13;100.00
74659;BME280;63186;51.204;6.536;2024-02-16T08:20:26;100741.78;;;12.21;100.00
74659;BME280;63186;51.204;6.536;2024-02-16T08:22:52;100751.22;;;12.29;100.00
74659;BME280;63186;51.204;6.536;2024-02-16T08:25:17;100748.78;;;12.36;100.00
74659;BME280;63186;51.204;6.536;2024-02-16T08:27:42;100752.03;;;12.46;100.00
74659;BME280;63186;51.204;6.536;2024-02-16T08:30:08;100750.75;;;12.53;100.00
74659;BME280;63186;51.204;6.536;2024-02-16T08:32:36;100758.69;;;12.63;100.00
74659;BME280;63186;51.204;6.536;2024-02-16T08:35:02;100756.25;;;12.70;100.00
74659;BME280;63186;51.204;6.536;2024-02-16T08:37:28;100756.56;;;12.77;100.00
74659;BME280;63186;51.204;6.536;2024-02-16T08:39:53;100758.38;;;12.82;100.00
74659;BME280;63186;51.204;6.536;2024-02-16T08:42:19;100755.44;;;12.87;100.00
74659;BME280;63186;51.204;6.536;2024-02-16T08:44:44;100766.66;;;12.90;100.00
74659;BME280;63186;51.204;6.536;2024-02-16T08:47:10;100768.44;;;12.95;100.00
74659;BME280;63186;51.204;6.536;2024-02-16T08:49:35;100769.41;;;12.99;100.00
74659;BME280;63186;51.204;6.536;2024-02-16T08:52:01;100761.59;;;13.01;100.00
74659;BME280;63186;51.204;6.536;2024-02-16T08:54:26;100765.66;;;13.03;100.00
74659;BME280;63186;51.204;6.536;2024-02-16T08:56:53;100766.81;;;13.02;100.00
74659;BME280;63186;51.204;6.536;2024-02-16T08:59:19;100775.25;;;13.06;100.00
74659;BME280;63186;51.204;6.536;2024-02-16T09:01:45;100772.84;;;13.04;100.00
74659;BME280;63186;51.204;6.536;2024-02-16T09:04:10;100780.94;;;13.10;100.00
74659;BME280;63186;51.204;6.536;2024-02-16T09:06:35;100781.56;;;13.15;100.00
74659;BME280;63186;51.204;6.536;2024-02-16T09:09:01;100783.69;;;13.18;100.00
74659;BME280;63186;51.204;6.536;2024-02-16T09:11:26;100782.72;;;13.23;100.00
74659;BME280;63186;51.204;6.536;2024-02-16T09:13:52;100788.44;;;13.26;100.00
74659;BME280;63186;51.204;6.536;2024-02-16T09:16:18;100800.13;;;13.32;100.00
74659;BME280;63186;51.204;6.536;2024-02-16T09:18:43;100794.75;;;13.36;100.00
74659;BME280;63186;51.204;6.536;2024-02-16T09:21:08;100801.25;;;13.40;100.00
74659;BME280;63186;51.204;6.536;2024-02-16T09:23:35;100804.31;;;13.47;100.00
74659;BME280;63186;51.204;6.536;2024-02-16T09:26:01;100805.75;;;13.53;100.00
74659;BME280;63186;51.204;6.536;2024-02-16T09:28:30;100809.97;;;13.59;100.00
74659;BME280;63186;51.204;6.536;2024-02-16T09:30:56;100802.97;;;13.62;100.00
74659;BME280;63186;51.204;6.536;2024-02-16T09:33:22;100809.94;;;13.68;100.00
74659;BME280;63186;51.204;6.536;2024-02-16T09:35:50;100818.53;;;13.75;100.00
74659;BME280;63186;51.204;6.536;2024-02-16T09:38:16;100819.53;;;13.79;100.00
74659;BME280;63186;51.204;6.536;2024-02-16T09:40:42;100817.09;;;13.77;100.00
74659;BME280;63186;51.204;6.536;2024-02-16T09:43:07;100824.88;;;13.75;100.00
74659;BME280;63186;51.204;6.536;2024-02-16T09:45:34;100825.91;;;13.71;100.00
74659;BME280;63186;51.204;6.536;2024-02-16T09:47:59;100826.25;;;13.69;100.00
74659;BME280;63186;51.204;6.536;2024-02-16T09:50:26;100826.72;;;13.71;100.00
74659;BME280;63186;51.204;6.536;2024-02-16T09:52:52;100829.63;;;13.75;100.00
74659;BME280;63186;51.204;6.536;2024-02-16T09:55:19;100840.84;;;13.78;100.00
74659;BME280;63186;51.204;6.536;2024-02-16T09:57:45;100845.06;;;13.84;100.00
74659;BME280;63186;51.204;6.536;2024-02-16T10:00:11;100837.38;;;13.90;100.00
74659;BME280;63186;51.204;6.536;2024-02-16T10:02:43;100852.97;;;13.95;100.00
74659;BME280;63186;51.204;6.536;2024-02-16T10:05:14;100846.81;;;13.98;100.00
74659;BME280;63186;51.204;6.536;2024-02-16T10:07:40;100840.41;;;14.06;100.00
74659;BME280;63186;51.204;6.536;2024-02-16T10:10:06;100842.81;;;14.16;100.00
74659;BME280;63186;51.204;6.536;2024-02-16T10:12:31;100853.03;;;14.24;100.00
74659;BME280;63186;51.204;6.536;2024-02-16T10:14:57;100860.00;;;14.30;100.00
74659;BME280;63186;51.204;6.536;2024-02-16T10:17:24;100864.06;;;14.33;100.00
74659;BME280;63186;51.204;6.536;2024-02-16T10:19:57;100865.88;;;14.29;100.00
74659;BME280;63186;51.204;6.536;2024-02-16T10:22:22;100862.16;;;14.25;100.00
74659;BME280;63186;51.204;6.536;2024-02-16T10:24:48;100873.69;;;14.27;100.00
74659;BME280;63186;51.204;6.536;2024-02-16T10:27:16;100881.38;;;14.21;100.00
74659;BME280;63186;51.204;6.536;2024-02-16T10:29:43;100881.06;;;14.23;100.00
74659;BME280;63186;51.204;6.536;2024-02-16T10:32:10;100880.25;;;14.22;100.00
74659;BME280;63186;51.204;6.536;2024-02-16T10:34:37;100890.19;;;14.23;100.00
74659;BME280;63186;51.204;6.536;2024-02-16T10:37:05;100897.00;;;14.26;100.00
74659;BME280;63186;51.204;6.536;2024-02-16T10:39:31;100896.19;;;14.25;100.00
74659;BME280;63186;51.204;6.536;2024-02-16T10:41:58;100897.50;;;14.19;100.00
74659;BME280;63186;51.204;6.536;2024-02-16T10:44:27;100906.97;;;14.18;100.00
74659;BME280;63186;51.204;6.536;2024-02-16T10:46:53;100910.72;;;14.13;100.00
74659;BME280;63186;51.204;6.536;2024-02-16T10:49:18;100900.78;;;14.12;100.00
74659;BME280;63186;51.204;6.536;2024-02-16T10:51:49;100906.50;;;14.16;100.00
74659;BME280;63186;51.204;6.536;2024-02-16T10:54:19;100911.34;;;14.19;100.00
74659;BME280;63186;51.204;6.536;2024-02-16T10:56:47;100909.56;;;14.15;100.00
74659;BME280;63186;51.204;6.536;2024-02-16T10:59:12;100908.16;;;14.08;100.00
74659;BME280;63186;51.204;6.536;2024-02-16T11:01:42;100913.53;;;14.05;100.00
74659;BME280;63186;51.204;6.536;2024-02-16T11:04:12;100914.69;;;14.04;100.00
74659;BME280;63186;51.204;6.536;2024-02-16T11:06:57;100924.94;;;14.03;100.00
74659;BME280;63186;51.204;6.536;2024-02-16T11:09:34;100912.38;;;14.06;100.00
74659;BME280;63186;51.204;6.536;2024-02-16T11:12:01;100920.69;;;14.06;100.00
74659;BME280;63186;51.204;6.536;2024-02-16T11:14:40;100915.63;;;14.08;100.00
74659;BME280;63186;51.204;6.536;2024-02-16T11:19:40;100924.44;;;14.10;100.00
74659;BME280;63186;51.204;6.536;2024-02-16T11:22:06;100931.13;;;14.09;100.00
74659;BME280;63186;51.204;6.536;2024-02-16T11:24:42;100936.16;;;14.07;100.00
74659;BME280;63186;51.204;6.536;2024-02-16T11:27:10;100940.41;;;14.04;100.00
74659;BME280;63186;51.204;6.536;2024-02-16T11:29:36;100941.88;;;14.02;100.00
74659;BME280;63186;51.204;6.536;2024-02-16T11:32:03;100939.75;;;13.99;100.00
74659;BME280;63186;51.204;6.536;2024-02-16T11:34:29;100944.47;;;13.98;100.00
74659;BME280;63186;51.204;6.536;2024-02-16T11:36:56;100946.78;;;13.96;100.00
74659;BME280;63186;51.204;6.536;2024-02-16T11:39:22;100943.84;;;13.93;100.00
74659;BME280;63186;51.204;6.536;2024-02-16T11:41:48;100938.63;;;13.91;100.00
74659;BME280;63186;51.204;6.536;2024-02-16T11:44:14;100954.25;;;13.87;100.00
74659;BME280;63186;51.204;6.536;2024-02-16T11:46:42;100949.88;;;13.86;100.00
74659;BME280;63186;51.204;6.536;2024-02-16T11:49:08;100958.50;;;13.84;100.00
74659;BME280;63186;51.204;6.536;2024-02-16T11:51:34;100946.97;;;13.82;100.00
74659;BME280;63186;51.204;6.536;2024-02-16T11:53:59;100952.81;;;13.81;100.00
74659;BME280;63186;51.204;6.536;2024-02-16T11:56:25;100962.72;;;13.82;100.00
74659;BME280;63186;51.204;6.536;2024-02-16T11:58:51;100945.19;;;13.78;100.00
74659;BME280;63186;51.204;6.536;2024-02-16T12:01:17;100957.19;;;13.82;100.00
74659;BME280;63186;51.204;6.536;2024-02-16T12:03:42;100953.63;;;13.81;100.00
74659;BME280;63186;51.204;6.536;2024-02-16T12:06:08;100957.19;;;13.82;100.00
74659;BME280;63186;51.204;6.536;2024-02-16T12:08:34;100955.44;;;13.77;100.00
74659;BME280;63186;51.204;6.536;2024-02-16T12:10:59;100954.63;;;13.77;100.00
74659;BME280;63186;51.204;6.536;2024-02-16T12:13:25;100960.16;;;13.77;100.00
74659;BME280;63186;51.204;6.536;2024-02-16T12:15:51;100962.75;;;13.73;100.00
74659;BME280;63186;51.204;6.536;2024-02-16T12:18:26;100963.09;;;13.72;100.00
74659;BME280;63186;51.204;6.536;2024-02-16T12:21:07;100965.84;;;13.72;100.00
74659;BME280;63186;51.204;6.536;2024-02-16T12:23:35;100959.03;;;13.69;100.00
74659;BME280;63186;51.204;6.536;2024-02-16T12:26:02;100969.91;;;13.66;100.00
74659;BME280;63186;51.204;6.536;2024-02-16T12:28:29;100972.84;;;13.61;100.00
74659;BME280;63186;51.204;6.536;2024-02-16T12:30:57;100974.00;;;13.51;100.00
74659;BME280;63186;51.204;6.536;2024-02-16T12:33:23;100987.50;;;13.44;100.00
74659;BME280;63186;51.204;6.536;2024-02-16T12:35:49;100977.41;;;13.39;100.00
74659;BME280;63186;51.204;6.536;2024-02-16T12:38:14;100983.09;;;13.34;100.00